Ira, Texas
Current Conditions -  °F | °C
As of 11:55 PM on Wednesday 28 Jan 2015 (Local Time) from KSWW Reporting Station
Clear Clear  
Wind Chill: 59°   Ceiling: Unl
Heat Index: 59°   Visibility: 10mi
Dew Point: 44°   Wind: 8mph
Humidity: 57%   Direction: 240°WSW
Pressure: 30.15"   Gusts: NA
Location:  32.58°N, 101°W
Report Text: KSWW 290555Z AUTO 24007KT 10SM CLR 15/07 A3015 RMK AO2 T01500066 10228 20150 402610115
Loading
Personal Weather Stations






























Interactive Weather Map New forecast layout! Learn more

10-Day Weather Forecast

Advertisements
Track Severe Weather on mobile